Decoded Metar for KALW (WALLA WALLA in WA, USA) (IATA:ALW) | Meteo·Mobile Aviation Weather
aviador You're here:

KALW Decoded Metar

WALLA WALLA in WA, USA
Report Time2019-05-19 22:53:00
UTC Time2019-05-19 23:08:59
Flight Rules vfr VFR
Wind140° at 03 kt
W.Decomp.*RWY 16: 2.3 kt HW 1.9 kt LCW
RWY 07: 1.9 kt HW 2.3 kt RCW
RWY 20: 0.5 kt HW 3 kt LCW
Visibility9999 m
Phenomena:N/A
Clouds:Scattered 060 Hf
Scattered 075 Hf
Expected CloudBase > 4,400 ft AGL from Temp-Dew spread
CeilingNone
Temp21°C (ISA +8)
Dew Point10°C (50% RH)
AAT20.0°C
QNH1001 hPa
Density Alt2,740 ft
Elevation1,191 ft
Report Wrong Elevation
Raw Report
KALW 192253Z 14003KT 10SM SCT060 SCT075 21/10 A2956 RMK AO2 SLP006
T02110100=

Extra information for KALW:More info

Metar Taf Metar & Taf Last 4 Metars F.Rules Stats Wind Profile Meteogram Temp Stats Airport Information Weather charts Add Link Nearby VenuesMetar ALERT Operation Metar Decoded Social comments

AIRNAV info for KALW